sensor_id;sensor_type;location;lat;lon;timestamp;temperature;humidity
37782;DHT22;23621;50.878;4.584;2024-03-17T00:01:45;15.40;65.00
37782;DHT22;23621;50.878;4.584;2024-03-17T00:03:46;15.40;65.00
37782;DHT22;23621;50.878;4.584;2024-03-17T00:05:47;15.40;65.10
37782;DHT22;23621;50.878;4.584;2024-03-17T00:07:48;15.30;65.00
37782;DHT22;23621;50.878;4.584;2024-03-17T00:09:49;15.30;65.70
37782;DHT22;23621;50.878;4.584;2024-03-17T00:11:49;15.30;65.00
37782;DHT22;23621;50.878;4.584;2024-03-17T00:13:50;15.30;65.00
37782;DHT22;23621;50.878;4.584;2024-03-17T00:15:51;15.30;65.00
37782;DHT22;23621;50.878;4.584;2024-03-17T00:17:52;15.30;65.00
37782;DHT22;23621;50.878;4.584;2024-03-17T00:19:52;15.30;64.90
37782;DHT22;23621;50.878;4.584;2024-03-17T00:21:53;15.20;64.80
37782;DHT22;23621;50.878;4.584;2024-03-17T00:23:54;15.20;64.80
37782;DHT22;23621;50.878;4.584;2024-03-17T00:25:55;15.20;64.80
37782;DHT22;23621;50.878;4.584;2024-03-17T00:27:55;15.20;64.80
37782;DHT22;23621;50.878;4.584;2024-03-17T00:29:58;15.20;64.80
37782;DHT22;23621;50.878;4.584;2024-03-17T00:31:58;15.10;64.70
37782;DHT22;23621;50.878;4.584;2024-03-17T00:33:59;15.10;64.70
37782;DHT22;23621;50.878;4.584;2024-03-17T00:36:00;15.10;64.60
37782;DHT22;23621;50.878;4.584;2024-03-17T00:38:00;15.10;64.70
37782;DHT22;23621;50.878;4.584;2024-03-17T00:40:04;15.10;64.80
37782;DHT22;23621;50.878;4.584;2024-03-17T00:42:06;15.10;64.80
37782;DHT22;23621;50.878;4.584;2024-03-17T00:44:07;15.10;64.80
37782;DHT22;23621;50.878;4.584;2024-03-17T00:46:08;15.10;64.70
37782;DHT22;23621;50.878;4.584;2024-03-17T00:48:08;15.10;64.70
37782;DHT22;23621;50.878;4.584;2024-03-17T00:50:10;15.10;64.70
37782;DHT22;23621;50.878;4.584;2024-03-17T00:52:11;15.10;64.60
37782;DHT22;23621;50.878;4.584;2024-03-17T00:54:12;15.10;64.60
37782;DHT22;23621;50.878;4.584;2024-03-17T00:56:13;15.10;64.80
37782;DHT22;23621;50.878;4.584;2024-03-17T00:58:13;15.00;64.70
37782;DHT22;23621;50.878;4.584;2024-03-17T01:00:14;15.00;64.70
37782;DHT22;23621;50.878;4.584;2024-03-17T01:02:16;15.00;64.90
37782;DHT22;23621;50.878;4.584;2024-03-17T01:04:16;15.10;65.00
37782;DHT22;23621;50.878;4.584;2024-03-17T01:06:17;15.10;65.00
37782;DHT22;23621;50.878;4.584;2024-03-17T01:08:18;15.10;65.00
37782;DHT22;23621;50.878;4.584;2024-03-17T01:10:20;15.10;65.10
37782;DHT22;23621;50.878;4.584;2024-03-17T01:12:20;15.10;65.00
37782;DHT22;23621;50.878;4.584;2024-03-17T01:14:21;15.10;65.10
37782;DHT22;23621;50.878;4.584;2024-03-17T01:16:22;15.20;65.20
37782;DHT22;23621;50.878;4.584;2024-03-17T01:18:23;15.20;65.20
37782;DHT22;23621;50.878;4.584;2024-03-17T01:20:24;15.20;65.00
37782;DHT22;23621;50.878;4.584;2024-03-17T01:22:24;15.30;65.10
37782;DHT22;23621;50.878;4.584;2024-03-17T01:24:25;15.30;65.10
37782;DHT22;23621;50.878;4.584;2024-03-17T01:26:25;15.30;65.10
37782;DHT22;23621;50.878;4.584;2024-03-17T01:28:26;15.30;65.00
37782;DHT22;23621;50.878;4.584;2024-03-17T01:30:27;15.30;65.00
37782;DHT22;23621;50.878;4.584;2024-03-17T01:32:28;15.30;65.00
37782;DHT22;23621;50.878;4.584;2024-03-17T01:34:28;15.30;65.00
37782;DHT22;23621;50.878;4.584;2024-03-17T01:36:29;15.30;65.10
37782;DHT22;23621;50.878;4.584;2024-03-17T01:38:30;15.20;65.10
37782;DHT22;23621;50.878;4.584;2024-03-17T01:40:30;15.20;65.30
37782;DHT22;23621;50.878;4.584;2024-03-17T01:42:31;15.20;65.30
37782;DHT22;23621;50.878;4.584;2024-03-17T01:44:32;15.20;65.50
37782;DHT22;23621;50.878;4.584;2024-03-17T01:46:33;15.10;65.50
37782;DHT22;23621;50.878;4.584;2024-03-17T01:48:34;15.10;65.60
37782;DHT22;23621;50.878;4.584;2024-03-17T01:50:36;15.10;65.60
37782;DHT22;23621;50.878;4.584;2024-03-17T01:52:37;15.10;65.70
37782;DHT22;23621;50.878;4.584;2024-03-17T01:54:38;15.10;65.70
37782;DHT22;23621;50.878;4.584;2024-03-17T01:56:39;15.10;65.80
37782;DHT22;23621;50.878;4.584;2024-03-17T01:58:43;15.10;65.90
37782;DHT22;23621;50.878;4.584;2024-03-17T02:00:44;15.10;66.00
37782;DHT22;23621;50.878;4.584;2024-03-17T02:02:45;15.10;66.00
37782;DHT22;23621;50.878;4.584;2024-03-17T02:04:46;15.20;66.10
37782;DHT22;23621;50.878;4.584;2024-03-17T02:06:46;15.20;66.20
37782;DHT22;23621;50.878;4.584;2024-03-17T02:08:48;15.20;66.10
37782;DHT22;23621;50.878;4.584;2024-03-17T02:10:55;15.20;66.20
37782;DHT22;23621;50.878;4.584;2024-03-17T02:12:55;15.30;66.20
37782;DHT22;23621;50.878;4.584;2024-03-17T02:15:00;15.30;66.20
37782;DHT22;23621;50.878;4.584;2024-03-17T02:17:01;15.30;66.20
37782;DHT22;23621;50.878;4.584;2024-03-17T02:19:02;15.30;66.00
37782;DHT22;23621;50.878;4.584;2024-03-17T02:21:03;15.30;65.80
37782;DHT22;23621;50.878;4.584;2024-03-17T02:23:06;15.40;65.80
37782;DHT22;23621;50.878;4.584;2024-03-17T02:25:07;15.40;65.70
37782;DHT22;23621;50.878;4.584;2024-03-17T02:27:11;15.40;65.60
37782;DHT22;23621;50.878;4.584;2024-03-17T02:29:11;15.40;65.40
37782;DHT22;23621;50.878;4.584;2024-03-17T02:31:14;15.40;65.40
37782;DHT22;23621;50.878;4.584;2024-03-17T02:33:15;15.40;65.40
37782;DHT22;23621;50.878;4.584;2024-03-17T02:35:16;15.40;65.40
37782;DHT22;23621;50.878;4.584;2024-03-17T02:37:16;15.40;65.50
37782;DHT22;23621;50.878;4.584;2024-03-17T02:39:17;15.40;65.60
37782;DHT22;23621;50.878;4.584;2024-03-17T02:41:36;15.40;65.80
37782;DHT22;23621;50.878;4.584;2024-03-17T02:43:36;15.30;65.90
37782;DHT22;23621;50.878;4.584;2024-03-17T02:45:37;15.40;66.10
37782;DHT22;23621;50.878;4.584;2024-03-17T02:47:38;15.30;66.10
37782;DHT22;23621;50.878;4.584;2024-03-17T02:49:40;15.30;66.20
37782;DHT22;23621;50.878;4.584;2024-03-17T02:51:43;15.30;66.30
37782;DHT22;23621;50.878;4.584;2024-03-17T02:53:45;15.30;66.40
37782;DHT22;23621;50.878;4.584;2024-03-17T02:55:46;15.30;66.50
37782;DHT22;23621;50.878;4.584;2024-03-17T02:57:46;15.20;66.40
37782;DHT22;23621;50.878;4.584;2024-03-17T02:59:47;15.20;66.40
37782;DHT22;23621;50.878;4.584;2024-03-17T03:01:48;15.20;66.40
37782;DHT22;23621;50.878;4.584;2024-03-17T03:03:48;15.20;66.40
37782;DHT22;23621;50.878;4.584;2024-03-17T03:05:49;15.20;66.50
37782;DHT22;23621;50.878;4.584;2024-03-17T03:07:50;15.10;66.50
37782;DHT22;23621;50.878;4.584;2024-03-17T03:09:51;15.10;66.60
37782;DHT22;23621;50.878;4.584;2024-03-17T03:11:52;15.10;66.60
37782;DHT22;23621;50.878;4.584;2024-03-17T03:13:53;15.20;66.80
37782;DHT22;23621;50.878;4.584;2024-03-17T03:15:53;15.20;66.80
37782;DHT22;23621;50.878;4.584;2024-03-17T03:17:54;15.20;66.80
37782;DHT22;23621;50.878;4.584;2024-03-17T03:19:55;15.20;66.70
37782;DHT22;23621;50.878;4.584;2024-03-17T03:21:56;15.20;66.70
37782;DHT22;23621;50.878;4.584;2024-03-17T03:23:57;15.20;66.70
37782;DHT22;23621;50.878;4.584;2024-03-17T03:25:59;15.20;66.70
37782;DHT22;23621;50.878;4.584;2024-03-17T03:28:00;15.30;66.80
37782;DHT22;23621;50.878;4.584;2024-03-17T03:30:02;15.20;66.70
37782;DHT22;23621;50.878;4.584;2024-03-17T03:32:03;15.20;66.80
37782;DHT22;23621;50.878;4.584;2024-03-17T03:34:04;15.20;66.80
37782;DHT22;23621;50.878;4.584;2024-03-17T03:36:11;15.10;66.80
37782;DHT22;23621;50.878;4.584;2024-03-17T03:38:13;15.10;66.80
37782;DHT22;23621;50.878;4.584;2024-03-17T03:40:14;15.10;67.00
37782;DHT22;23621;50.878;4.584;2024-03-17T03:42:18;15.10;67.00
37782;DHT22;23621;50.878;4.584;2024-03-17T03:44:18;15.10;67.00
37782;DHT22;23621;50.878;4.584;2024-03-17T03:46:19;15.00;66.90
37782;DHT22;23621;50.878;4.584;2024-03-17T03:48:21;15.10;67.10
37782;DHT22;23621;50.878;4.584;2024-03-17T03:50:22;15.00;67.00
37782;DHT22;23621;50.878;4.584;2024-03-17T03:52:23;15.00;67.10
37782;DHT22;23621;50.878;4.584;2024-03-17T03:54:25;15.00;67.20
37782;DHT22;23621;50.878;4.584;2024-03-17T03:56:26;15.00;67.30
37782;DHT22;23621;50.878;4.584;2024-03-17T03:58:29;15.00;67.30
37782;DHT22;23621;50.878;4.584;2024-03-17T04:00:30;15.00;67.40
37782;DHT22;23621;50.878;4.584;2024-03-17T04:02:32;15.00;67.40
37782;DHT22;23621;50.878;4.584;2024-03-17T04:04:34;15.00;67.40
37782;DHT22;23621;50.878;4.584;2024-03-17T04:06:35;15.00;67.40
37782;DHT22;23621;50.878;4.584;2024-03-17T04:08:38;15.00;67.40
37782;DHT22;23621;50.878;4.584;2024-03-17T04:10:44;15.00;67.40
37782;DHT22;23621;50.878;4.584;2024-03-17T04:12:44;15.00;67.30
37782;DHT22;23621;50.878;4.584;2024-03-17T04:14:45;15.00;67.30
37782;DHT22;23621;50.878;4.584;2024-03-17T04:16:47;15.00;67.30
37782;DHT22;23621;50.878;4.584;2024-03-17T04:18:47;15.00;67.20
37782;DHT22;23621;50.878;4.584;2024-03-17T04:20:48;15.00;67.10
37782;DHT22;23621;50.878;4.584;2024-03-17T04:22:49;15.00;67.00
37782;DHT22;23621;50.878;4.584;2024-03-17T04:24:50;15.00;67.00
37782;DHT22;23621;50.878;4.584;2024-03-17T04:26:54;15.00;67.00
37782;DHT22;23621;50.878;4.584;2024-03-17T04:28:55;15.00;66.90
37782;DHT22;23621;50.878;4.584;2024-03-17T04:31:08;15.00;66.70
37782;DHT22;23621;50.878;4.584;2024-03-17T04:33:17;15.00;66.70
37782;DHT22;23621;50.878;4.584;2024-03-17T04:35:18;14.90;66.60
37782;DHT22;23621;50.878;4.584;2024-03-17T04:37:19;14.80;66.60
37782;DHT22;23621;50.878;4.584;2024-03-17T04:39:20;14.80;66.60
37782;DHT22;23621;50.878;4.584;2024-03-17T04:41:20;14.70;66.60
37782;DHT22;23621;50.878;4.584;2024-03-17T04:43:21;14.70;66.70
37782;DHT22;23621;50.878;4.584;2024-03-17T04:45:21;14.70;66.80
37782;DHT22;23621;50.878;4.584;2024-03-17T04:47:22;14.60;66.80
37782;DHT22;23621;50.878;4.584;2024-03-17T04:49:23;14.60;66.80
37782;DHT22;23621;50.878;4.584;2024-03-17T04:51:23;14.60;67.00
37782;DHT22;23621;50.878;4.584;2024-03-17T04:53:24;14.60;67.00
37782;DHT22;23621;50.878;4.584;2024-03-17T04:55:25;14.50;67.00
37782;DHT22;23621;50.878;4.584;2024-03-17T04:57:26;14.60;67.10
37782;DHT22;23621;50.878;4.584;2024-03-17T04:59:27;14.60;67.00
37782;DHT22;23621;50.878;4.584;2024-03-17T05:01:27;14.60;67.00
37782;DHT22;23621;50.878;4.584;2024-03-17T05:03:28;14.70;67.00
37782;DHT22;23621;50.878;4.584;2024-03-17T05:05:29;14.70;67.00
37782;DHT22;23621;50.878;4.584;2024-03-17T05:07:29;14.70;67.00
37782;DHT22;23621;50.878;4.584;2024-03-17T05:09:30;14.70;67.00
37782;DHT22;23621;50.878;4.584;2024-03-17T05:11:31;14.70;66.90
37782;DHT22;23621;50.878;4.584;2024-03-17T05:13:33;14.70;67.00
37782;DHT22;23621;50.878;4.584;2024-03-17T05:15:36;14.70;67.00
37782;DHT22;23621;50.878;4.584;2024-03-17T05:17:37;14.60;66.80
37782;DHT22;23621;50.878;4.584;2024-03-17T05:19:37;14.60;66.90
37782;DHT22;23621;50.878;4.584;2024-03-17T05:21:38;14.60;67.00
37782;DHT22;23621;50.878;4.584;2024-03-17T05:23:39;14.60;67.00
37782;DHT22;23621;50.878;4.584;2024-03-17T05:25:39;14.60;67.10
37782;DHT22;23621;50.878;4.584;2024-03-17T05:27:40;14.50;67.10
37782;DHT22;23621;50.878;4.584;2024-03-17T05:29:41;14.50;67.20
37782;DHT22;23621;50.878;4.584;2024-03-17T05:31:41;14.50;67.20
37782;DHT22;23621;50.878;4.584;2024-03-17T05:33:47;14.50;67.30
37782;DHT22;23621;50.878;4.584;2024-03-17T05:35:55;14.50;67.30
37782;DHT22;23621;50.878;4.584;2024-03-17T05:37:56;14.50;67.30
37782;DHT22;23621;50.878;4.584;2024-03-17T05:39:57;14.50;67.30
37782;DHT22;23621;50.878;4.584;2024-03-17T05:41:57;14.50;67.30
37782;DHT22;23621;50.878;4.584;2024-03-17T05:43:58;14.50;67.40
37782;DHT22;23621;50.878;4.584;2024-03-17T05:46:00;14.50;67.40
37782;DHT22;23621;50.878;4.584;2024-03-17T05:48:01;14.60;67.50
37782;DHT22;23621;50.878;4.584;2024-03-17T05:50:05;14.60;67.60
37782;DHT22;23621;50.878;4.584;2024-03-17T05:52:06;14.60;67.50
37782;DHT22;23621;50.878;4.584;2024-03-17T05:54:08;14.60;67.60
37782;DHT22;23621;50.878;4.584;2024-03-17T05:56:10;14.60;67.50
37782;DHT22;23621;50.878;4.584;2024-03-17T05:58:16;14.60;67.60
37782;DHT22;23621;50.878;4.584;2024-03-17T06:00:16;14.70;67.70
37782;DHT22;23621;50.878;4.584;2024-03-17T06:02:17;14.70;67.80
37782;DHT22;23621;50.878;4.584;2024-03-17T06:04:19;14.70;67.80
37782;DHT22;23621;50.878;4.584;2024-03-17T06:06:19;14.70;67.80
37782;DHT22;23621;50.878;4.584;2024-03-17T06:08:20;14.80;67.90
37782;DHT22;23621;50.878;4.584;2024-03-17T06:10:22;14.80;67.90
37782;DHT22;23621;50.878;4.584;2024-03-17T06:12:24;14.80;67.80
37782;DHT22;23621;50.878;4.584;2024-03-17T06:14:25;14.90;67.80
37782;DHT22;23621;50.878;4.584;2024-03-17T06:16:26;14.80;67.60
37782;DHT22;23621;50.878;4.584;2024-03-17T06:18:27;14.90;67.60
37782;DHT22;23621;50.878;4.584;2024-03-17T06:20:28;15.00;67.70
37782;DHT22;23621;50.878;4.584;2024-03-17T06:22:29;14.90;67.50
37782;DHT22;23621;50.878;4.584;2024-03-17T06:24:29;15.00;67.50
37782;DHT22;23621;50.878;4.584;2024-03-17T06:26:30;14.90;67.40
37782;DHT22;23621;50.878;4.584;2024-03-17T06:28:33;15.00;67.60
37782;DHT22;23621;50.878;4.584;2024-03-17T06:30:34;15.00;67.40
37782;DHT22;23621;50.878;4.584;2024-03-17T06:32:36;15.10;67.50
37782;DHT22;23621;50.878;4.584;2024-03-17T06:34:37;15.10;67.50
37782;DHT22;23621;50.878;4.584;2024-03-17T06:36:37;15.10;67.60
37782;DHT22;23621;50.878;4.584;2024-03-17T06:38:38;15.10;67.60
37782;DHT22;23621;50.878;4.584;2024-03-17T06:40:39;15.10;67.60
37782;DHT22;23621;50.878;4.584;2024-03-17T06:42:40;15.10;67.80
37782;DHT22;23621;50.878;4.584;2024-03-17T06:44:41;15.10;67.90
37782;DHT22;23621;50.878;4.584;2024-03-17T06:46:41;15.00;67.90
37782;DHT22;23621;50.878;4.584;2024-03-17T06:48:42;15.10;68.10
37782;DHT22;23621;50.878;4.584;2024-03-17T06:50:43;15.00;68.10
37782;DHT22;23621;50.878;4.584;2024-03-17T06:52:44;15.10;68.30
37782;DHT22;23621;50.878;4.584;2024-03-17T06:54:47;15.10;68.30
37782;DHT22;23621;50.878;4.584;2024-03-17T06:56:50;15.10;68.30
37782;DHT22;23621;50.878;4.584;2024-03-17T06:58:52;15.10;68.30
37782;DHT22;23621;50.878;4.584;2024-03-17T07:00:54;15.10;68.30
37782;DHT22;23621;50.878;4.584;2024-03-17T07:02:55;15.20;68.50
37782;DHT22;23621;50.878;4.584;2024-03-17T07:04:55;15.20;68.50
37782;DHT22;23621;50.878;4.584;2024-03-17T07:06:58;15.20;68.50
37782;DHT22;23621;50.878;4.584;2024-03-17T07:08:59;15.20;68.50
37782;DHT22;23621;50.878;4.584;2024-03-17T07:11:04;15.20;68.50
37782;DHT22;23621;50.878;4.584;2024-03-17T07:13:05;15.30;68.70
37782;DHT22;23621;50.878;4.584;2024-03-17T07:15:06;15.30;68.60
37782;DHT22;23621;50.878;4.584;2024-03-17T07:17:07;15.30;68.50
37782;DHT22;23621;50.878;4.584;2024-03-17T07:19:07;15.30;69.40
37782;DHT22;23621;50.878;4.584;2024-03-17T07:21:08;15.30;68.70
37782;DHT22;23621;50.878;4.584;2024-03-17T07:23:10;15.30;68.80
37782;DHT22;23621;50.878;4.584;2024-03-17T07:25:11;15.40;68.90
37782;DHT22;23621;50.878;4.584;2024-03-17T07:27:13;15.30;68.90
37782;DHT22;23621;50.878;4.584;2024-03-17T07:29:15;15.40;69.00
37782;DHT22;23621;50.878;4.584;2024-03-17T07:31:16;15.40;69.10
37782;DHT22;23621;50.878;4.584;2024-03-17T07:33:17;15.40;69.00
37782;DHT22;23621;50.878;4.584;2024-03-17T07:35:17;15.40;69.00
37782;DHT22;23621;50.878;4.584;2024-03-17T07:37:18;15.40;68.90
37782;DHT22;23621;50.878;4.584;2024-03-17T07:39:19;15.50;68.90
37782;DHT22;23621;50.878;4.584;2024-03-17T07:41:19;15.50;68.80
37782;DHT22;23621;50.878;4.584;2024-03-17T07:43:20;15.60;68.90
37782;DHT22;23621;50.878;4.584;2024-03-17T07:45:20;15.60;68.70
37782;DHT22;23621;50.878;4.584;2024-03-17T07:47:21;15.70;68.70
37782;DHT22;23621;50.878;4.584;2024-03-17T07:49:22;15.70;68.60
37782;DHT22;23621;50.878;4.584;2024-03-17T07:51:22;15.80;68.60
37782;DHT22;23621;50.878;4.584;2024-03-17T07:53:23;15.80;68.40
37782;DHT22;23621;50.878;4.584;2024-03-17T07:55:24;15.80;68.40
37782;DHT22;23621;50.878;4.584;2024-03-17T07:57:27;15.90;68.40
37782;DHT22;23621;50.878;4.584;2024-03-17T07:59:27;16.00;68.40
37782;DHT22;23621;50.878;4.584;2024-03-17T08:01:29;16.00;68.40
37782;DHT22;23621;50.878;4.584;2024-03-17T08:03:31;16.10;68.40
37782;DHT22;23621;50.878;4.584;2024-03-17T08:05:31;16.10;68.40
37782;DHT22;23621;50.878;4.584;2024-03-17T08:07:32;16.20;68.50
37782;DHT22;23621;50.878;4.584;2024-03-17T08:09:33;16.30;68.70
37782;DHT22;23621;50.878;4.584;2024-03-17T08:11:34;16.30;68.70
37782;DHT22;23621;50.878;4.584;2024-03-17T08:13:35;16.40;68.60
37782;DHT22;23621;50.878;4.584;2024-03-17T08:15:36;16.50;68.60
37782;DHT22;23621;50.878;4.584;2024-03-17T08:17:37;16.50;68.50
37782;DHT22;23621;50.878;4.584;2024-03-17T08:19:38;16.60;68.50
37782;DHT22;23621;50.878;4.584;2024-03-17T08:21:39;16.60;68.40
37782;DHT22;23621;50.878;4.584;2024-03-17T08:23:40;16.70;68.40
37782;DHT22;23621;50.878;4.584;2024-03-17T08:25:42;16.70;68.40
37782;DHT22;23621;50.878;4.584;2024-03-17T08:27:42;16.80;68.40
37782;DHT22;23621;50.878;4.584;2024-03-17T08:29:43;16.80;68.30
37782;DHT22;23621;50.878;4.584;2024-03-17T08:31:44;16.90;68.30
37782;DHT22;23621;50.878;4.584;2024-03-17T08:33:45;16.90;68.40
37782;DHT22;23621;50.878;4.584;2024-03-17T08:36:04;17.00;68.50
37782;DHT22;23621;50.878;4.584;2024-03-17T08:38:05;17.00;68.50
37782;DHT22;23621;50.878;4.584;2024-03-17T08:40:06;17.10;68.50
37782;DHT22;23621;50.878;4.584;2024-03-17T08:42:07;17.10;68.60
37782;DHT22;23621;50.878;4.584;2024-03-17T08:44:08;17.20;68.50
37782;DHT22;23621;50.878;4.584;2024-03-17T08:46:10;17.20;68.50
37782;DHT22;23621;50.878;4.584;2024-03-17T08:48:12;17.30;68.70
37782;DHT22;23621;50.878;4.584;2024-03-17T08:50:12;17.30;68.60
37782;DHT22;23621;50.878;4.584;2024-03-17T08:52:13;17.40;68.70
37782;DHT22;23621;50.878;4.584;2024-03-17T08:54:14;17.40;68.70
37782;DHT22;23621;50.878;4.584;2024-03-17T08:56:14;17.40;68.70
37782;DHT22;23621;50.878;4.584;2024-03-17T08:58:15;17.40;68.70
37782;DHT22;23621;50.878;4.584;2024-03-17T09:00:16;17.50;68.70
37782;DHT22;23621;50.878;4.584;2024-03-17T09:02:17;17.50;68.70
37782;DHT22;23621;50.878;4.584;2024-03-17T09:04:18;17.50;68.70
37782;DHT22;23621;50.878;4.584;2024-03-17T09:06:18;17.50;68.60
37782;DHT22;23621;50.878;4.584;2024-03-17T09:08:24;17.60;68.80
37782;DHT22;23621;50.878;4.584;2024-03-17T09:10:26;17.60;68.70
37782;DHT22;23621;50.878;4.584;2024-03-17T09:12:27;17.60;68.70
37782;DHT22;23621;50.878;4.584;2024-03-17T09:14:28;17.60;68.80
37782;DHT22;23621;50.878;4.584;2024-03-17T09:16:28;17.60;68.90
37782;DHT22;23621;50.878;4.584;2024-03-17T09:18:32;17.60;69.00
37782;DHT22;23621;50.878;4.584;2024-03-17T09:20:33;17.60;69.00
37782;DHT22;23621;50.878;4.584;2024-03-17T09:22:34;17.70;69.00
37782;DHT22;23621;50.878;4.584;2024-03-17T09:24:34;17.70;69.10
37782;DHT22;23621;50.878;4.584;2024-03-17T09:26:35;17.70;69.30
37782;DHT22;23621;50.878;4.584;2024-03-17T09:28:36;17.70;69.20
37782;DHT22;23621;50.878;4.584;2024-03-17T09:30:37;17.80;69.40
37782;DHT22;23621;50.878;4.584;2024-03-17T09:32:38;17.80;69.30
37782;DHT22;23621;50.878;4.584;2024-03-17T09:34:39;17.80;69.30
37782;DHT22;23621;50.878;4.584;2024-03-17T09:36:39;17.80;69.20
37782;DHT22;23621;50.878;4.584;2024-03-17T09:38:40;17.80;69.20
37782;DHT22;23621;50.878;4.584;2024-03-17T09:40:46;17.90;69.20
37782;DHT22;23621;50.878;4.584;2024-03-17T09:42:47;17.90;69.20
37782;DHT22;23621;50.878;4.584;2024-03-17T09:44:49;18.00;69.30
37782;DHT22;23621;50.878;4.584;2024-03-17T09:46:50;18.00;69.30
37782;DHT22;23621;50.878;4.584;2024-03-17T09:48:51;18.00;69.20
37782;DHT22;23621;50.878;4.584;2024-03-17T09:52:54;18.10;69.30
37782;DHT22;23621;50.878;4.584;2024-03-17T09:55:00;18.10;69.30
37782;DHT22;23621;50.878;4.584;2024-03-17T09:57:01;18.10;69.30
37782;DHT22;23621;50.878;4.584;2024-03-17T09:59:07;18.10;69.20
37782;DHT22;23621;50.878;4.584;2024-03-17T10:01:08;18.10;69.20
37782;DHT22;23621;50.878;4.584;2024-03-17T10:03:09;18.10;69.30
37782;DHT22;23621;50.878;4.584;2024-03-17T10:05:24;18.20;69.40
37782;DHT22;23621;50.878;4.584;2024-03-17T10:07:38;18.20;69.60
37782;DHT22;23621;50.878;4.584;2024-03-17T10:09:39;18.20;69.40
37782;DHT22;23621;50.878;4.584;2024-03-17T10:11:41;18.20;69.40
37782;DHT22;23621;50.878;4.584;2024-03-17T10:13:46;18.20;69.50
37782;DHT22;23621;50.878;4.584;2024-03-17T10:15:50;18.20;69.50
37782;DHT22;23621;50.878;4.584;2024-03-17T10:17:51;18.30;69.60
37782;DHT22;23621;50.878;4.584;2024-03-17T10:19:52;18.30;69.60
37782;DHT22;23621;50.878;4.584;2024-03-17T10:22:00;18.30;69.60
37782;DHT22;23621;50.878;4.584;2024-03-17T10:26:14;18.40;69.80
37782;DHT22;23621;50.878;4.584;2024-03-17T10:28:16;18.40;70.50
37782;DHT22;23621;50.878;4.584;2024-03-17T10:30:18;18.40;70.00
37782;DHT22;23621;50.878;4.584;2024-03-17T10:32:22;18.40;70.00
37782;DHT22;23621;50.878;4.584;2024-03-17T10:34:26;18.50;70.10
37782;DHT22;23621;50.878;4.584;2024-03-17T10:36:29;18.50;70.10
37782;DHT22;23621;50.878;4.584;2024-03-17T10:38:30;18.60;70.10
37782;DHT22;23621;50.878;4.584;2024-03-17T10:40:32;18.60;70.10
37782;DHT22;23621;50.878;4.584;2024-03-17T10:42:39;18.60;70.10
37782;DHT22;23621;50.878;4.584;2024-03-17T10:44:41;18.60;70.00
37782;DHT22;23621;50.878;4.584;2024-03-17T10:46:46;18.70;70.10
37782;DHT22;23621;50.878;4.584;2024-03-17T10:48:48;18.70;70.10
37782;DHT22;23621;50.878;4.584;2024-03-17T10:50:50;18.70;70.10
37782;DHT22;23621;50.878;4.584;2024-03-17T10:52:55;18.80;70.10
37782;DHT22;23621;50.878;4.584;2024-03-17T10:55:02;18.80;70.40
37782;DHT22;23621;50.878;4.584;2024-03-17T10:57:19;18.80;70.40
37782;DHT22;23621;50.878;4.584;2024-03-17T10:59:40;18.80;70.40
37782;DHT22;23621;50.878;4.584;2024-03-17T11:01:41;18.80;70.40
37782;DHT22;23621;50.878;4.584;2024-03-17T11:03:43;18.80;70.50
37782;DHT22;23621;50.878;4.584;2024-03-17T11:05:50;18.80;71.20
37782;DHT22;23621;50.878;4.584;2024-03-17T11:07:52;18.80;70.30
37782;DHT22;23621;50.878;4.584;2024-03-17T11:09:56;18.90;70.40
37782;DHT22;23621;50.878;4.584;2024-03-17T11:11:57;18.90;70.50
37782;DHT22;23621;50.878;4.584;2024-03-17T11:14:20;18.90;70.40
37782;DHT22;23621;50.878;4.584;2024-03-17T11:16:26;18.90;70.10
37782;DHT22;23621;50.878;4.584;2024-03-17T11:18:29;18.90;70.10
37782;DHT22;23621;50.878;4.584;2024-03-17T11:20:31;18.90;70.30
37782;DHT22;23621;50.878;4.584;2024-03-17T11:22:44;18.90;70.40
37782;DHT22;23621;50.878;4.584;2024-03-17T11:24:45;19.00;70.40
37782;DHT22;23621;50.878;4.584;2024-03-17T11:26:46;19.00;70.40
37782;DHT22;23621;50.878;4.584;2024-03-17T11:28:47;19.00;70.50
37782;DHT22;23621;50.878;4.584;2024-03-17T11:30:49;19.10;70.70
37782;DHT22;23621;50.878;4.584;2024-03-17T11:33:01;19.10;70.70
37782;DHT22;23621;50.878;4.584;2024-03-17T11:35:13;19.20;70.70
37782;DHT22;23621;50.878;4.584;2024-03-17T11:37:41;19.30;71.00
37782;DHT22;23621;50.878;4.584;2024-03-17T11:41:50;19.50;71.00
37782;DHT22;23621;50.878;4.584;2024-03-17T11:46:22;19.60;70.90
37782;DHT22;23621;50.878;4.584;2024-03-17T11:48:22;19.70;70.90
37782;DHT22;23621;50.878;4.584;2024-03-17T11:50:23;19.80;71.00
37782;DHT22;23621;50.878;4.584;2024-03-17T11:52:24;19.80;70.70
37782;DHT22;23621;50.878;4.584;2024-03-17T11:54:29;19.90;70.60
37782;DHT22;23621;50.878;4.584;2024-03-17T11:56:30;20.00;70.60
37782;DHT22;23621;50.878;4.584;2024-03-17T11:58:31;20.00;70.60
37782;DHT22;23621;50.878;4.584;2024-03-17T12:00:33;20.00;70.60
37782;DHT22;23621;50.878;4.584;2024-03-17T12:02:34;20.10;70.60
37782;DHT22;23621;50.878;4.584;2024-03-17T12:04:39;20.10;71.30
37782;DHT22;23621;50.878;4.584;2024-03-17T12:07:08;20.20;70.60
37782;DHT22;23621;50.878;4.584;2024-03-17T12:09:21;20.20;70.60
37782;DHT22;23621;50.878;4.584;2024-03-17T12:11:22;20.30;71.00
37782;DHT22;23621;50.878;4.584;2024-03-17T12:13:23;20.40;70.80
37782;DHT22;23621;50.878;4.584;2024-03-17T12:15:25;20.40;70.40
37782;DHT22;23621;50.878;4.584;2024-03-17T12:17:26;20.50;70.00
37782;DHT22;23621;50.878;4.584;2024-03-17T12:19:28;20.50;69.80
37782;DHT22;23621;50.878;4.584;2024-03-17T12:21:29;20.50;69.80
37782;DHT22;23621;50.878;4.584;2024-03-17T12:23:29;20.50;69.70
37782;DHT22;23621;50.878;4.584;2024-03-17T12:25:30;20.50;69.70
37782;DHT22;23621;50.878;4.584;2024-03-17T12:27:31;20.60;69.70
37782;DHT22;23621;50.878;4.584;2024-03-17T12:29:33;20.60;69.80
37782;DHT22;23621;50.878;4.584;2024-03-17T12:31:36;20.60;69.70
37782;DHT22;23621;50.878;4.584;2024-03-17T12:33:37;20.60;69.60
37782;DHT22;23621;50.878;4.584;2024-03-17T12:35:44;20.70;69.50
37782;DHT22;23621;50.878;4.584;2024-03-17T12:37:45;20.70;69.50
37782;DHT22;23621;50.878;4.584;2024-03-17T12:39:47;20.70;69.30
37782;DHT22;23621;50.878;4.584;2024-03-17T12:44:22;20.70;69.60
37782;DHT22;23621;50.878;4.584;2024-03-17T12:46:23;20.70;69.90
37782;DHT22;23621;50.878;4.584;2024-03-17T12:48:24;20.70;70.00
37782;DHT22;23621;50.878;4.584;2024-03-17T12:50:24;20.80;70.10
37782;DHT22;23621;50.878;4.584;2024-03-17T12:52:27;20.80;69.90
37782;DHT22;23621;50.878;4.584;2024-03-17T12:54:28;20.80;69.80
37782;DHT22;23621;50.878;4.584;2024-03-17T12:56:30;20.90;70.00
37782;DHT22;23621;50.878;4.584;2024-03-17T12:58:49;20.90;70.00
37782;DHT22;23621;50.878;4.584;2024-03-17T13:01:08;20.90;70.00
37782;DHT22;23621;50.878;4.584;2024-03-17T13:03:09;20.90;70.60